createdAt,value
2022-12-26T00:02:30.494Z,40.30
2022-12-26T00:07:36.464Z,40.90
2022-12-26T00:12:42.252Z,40.90
2022-12-26T00:17:48.105Z,38.30
2022-12-26T00:22:54.959Z,43.30
2022-12-26T00:28:00.803Z,36.50
2022-12-26T00:33:07.000Z,38.50
2022-12-26T00:38:12.956Z,44.30
2022-12-26T00:43:18.846Z,40.00
2022-12-26T00:48:24.646Z,35.90
2022-12-26T00:53:32.420Z,40.50
2022-12-26T00:58:42.147Z,42.90
2022-12-26T01:03:50.585Z,39.50
2022-12-26T01:08:56.700Z,40.70
2022-12-26T01:14:02.324Z,38.00
2022-12-26T01:19:08.578Z,39.10
2022-12-26T01:24:14.416Z,42.30
2022-12-26T01:29:20.482Z,41.10
2022-12-26T01:34:26.330Z,45.90
2022-12-26T01:39:32.444Z,39.40
2022-12-26T01:45:05.094Z,43.60
2022-12-26T01:50:26.044Z,47.50
2022-12-26T01:55:33.799Z,43.30
2022-12-26T02:00:40.242Z,46.50
2022-12-26T02:05:46.374Z,47.50
2022-12-26T02:10:57.609Z,45.70
2022-12-26T02:16:04.415Z,47.10
2022-12-26T02:21:38.448Z,46.30
2022-12-26T02:27:28.088Z,45.70
2022-12-26T02:33:03.919Z,48.40
2022-12-26T02:38:23.345Z,41.90
2022-12-26T02:43:37.708Z,42.00
2022-12-26T02:48:55.128Z,44.40
2022-12-26T02:54:29.577Z,42.70
2022-12-26T03:00:05.461Z,39.80
2022-12-26T03:05:37.561Z,41.90
2022-12-26T03:11:02.627Z,40.20
2022-12-26T03:16:31.719Z,40.90
2022-12-26T03:21:42.778Z,37.30
2022-12-26T03:26:52.988Z,38.30
2022-12-26T03:31:59.695Z,33.90
2022-12-26T03:37:26.307Z,35.70
2022-12-26T03:43:19.400Z,37.60
2022-12-26T03:48:51.370Z,34.20
2022-12-26T03:54:24.625Z,33.30
2022-12-26T03:59:58.434Z,37.10
2022-12-26T04:05:26.760Z,34.10
2022-12-26T04:10:55.952Z,31.10
2022-12-26T04:16:23.722Z,31.50
2022-12-26T04:21:55.861Z,36.20
2022-12-26T04:27:26.555Z,35.20
2022-12-26T04:32:57.067Z,33.80
2022-12-26T04:38:24.195Z,37.20
2022-12-26T04:43:51.521Z,31.70
2022-12-26T04:49:17.492Z,31.20
2022-12-26T04:54:23.452Z,31.80
2022-12-26T04:59:29.149Z,33.30
2022-12-26T05:04:54.284Z,35.20
2022-12-26T05:10:00.226Z,28.70
2022-12-26T05:15:07.295Z,29.10
2022-12-26T05:20:33.339Z,25.90
2022-12-26T05:26:01.061Z,27.30
2022-12-26T05:31:08.028Z,26.90
2022-12-26T05:36:15.029Z,25.80
2022-12-26T05:41:20.786Z,30.80
2022-12-26T05:46:26.764Z,24.40
2022-12-26T05:51:32.857Z,24.50
2022-12-26T05:56:40.902Z,22.20
2022-12-26T06:01:49.055Z,19.80
2022-12-26T06:06:56.748Z,21.30
2022-12-26T06:12:02.687Z,24.40
2022-12-26T06:17:08.425Z,26.20
2022-12-26T06:22:14.169Z,30.90
2022-12-26T06:27:19.956Z,28.90
2022-12-26T06:32:26.037Z,19.60
2022-12-26T06:37:32.679Z,18.70
2022-12-26T06:42:38.700Z,19.10
2022-12-26T06:47:45.240Z,17.30
2022-12-26T06:52:51.076Z,16.10
2022-12-26T06:57:56.899Z,15.80
2022-12-26T07:03:02.738Z,19.30
2022-12-26T07:08:09.288Z,47.60
2022-12-26T07:13:14.955Z,16.70
2022-12-26T07:18:20.933Z,16.10
2022-12-26T07:23:27.099Z,16.00
2022-12-26T07:28:33.116Z,17.90
2022-12-26T07:33:39.079Z,21.90
2022-12-26T07:38:45.071Z,23.30
2022-12-26T07:43:51.045Z,20.10
2022-12-26T07:48:56.805Z,24.30
2022-12-26T07:54:08.903Z,50.20
2022-12-26T07:59:18.130Z,19.40
2022-12-26T08:04:23.892Z,18.60
2022-12-26T08:09:29.582Z,16.50
2022-12-26T08:14:36.626Z,23.30
2022-12-26T08:19:42.493Z,19.50
2022-12-26T08:24:48.224Z,13.50
2022-12-26T08:29:53.863Z,17.50
2022-12-26T08:34:59.620Z,24.40
2022-12-26T08:40:26.816Z,63.60
2022-12-26T08:45:42.353Z,21.50
2022-12-26T08:50:48.193Z,18.20
2022-12-26T08:55:55.057Z,25.20
2022-12-26T09:01:10.117Z,21.30
2022-12-26T09:06:17.717Z,29.70
2022-12-26T09:11:27.015Z,22.60
2022-12-26T09:16:40.030Z,27.90
2022-12-26T09:21:48.546Z,23.90
2022-12-26T09:26:54.180Z,20.60
2022-12-26T09:32:00.899Z,23.00
2022-12-26T09:37:06.792Z,22.10
2022-12-26T09:42:28.383Z,17.20
2022-12-26T09:47:37.746Z,34.40
2022-12-26T09:52:48.761Z,35.20
2022-12-26T09:57:59.388Z,27.40
2022-12-26T10:03:08.081Z,21.30
2022-12-26T10:08:30.578Z,23.60
2022-12-26T10:13:43.839Z,23.30
2022-12-26T10:18:58.962Z,22.30
2022-12-26T10:24:15.890Z,17.20
2022-12-26T10:29:25.879Z,24.60
2022-12-26T10:34:37.088Z,20.90
2022-12-26T10:39:47.902Z,24.30
2022-12-26T10:44:53.754Z,22.60
2022-12-26T10:50:00.139Z,22.20
2022-12-26T10:55:28.144Z,21.90
2022-12-26T11:00:35.820Z,23.90
2022-12-26T11:11:21.068Z,24.40
2022-12-26T11:16:29.661Z,26.70
2022-12-26T11:21:35.610Z,21.50
2022-12-26T11:26:41.745Z,29.40
2022-12-26T11:31:57.151Z,25.40
2022-12-26T11:37:05.654Z,25.00
2022-12-26T11:42:19.069Z,24.70
2022-12-26T11:47:28.926Z,25.40
2022-12-26T11:52:41.227Z,24.50
2022-12-26T11:58:02.092Z,23.20
2022-12-26T12:03:16.579Z,26.70
2022-12-26T12:08:44.061Z,22.30
2022-12-26T12:14:06.075Z,23.10
2022-12-26T12:19:36.019Z,24.90
2022-12-26T12:24:53.152Z,28.10
2022-12-26T12:30:15.503Z,25.20
2022-12-26T12:35:41.227Z,24.50
2022-12-26T12:40:57.564Z,33.60
2022-12-26T12:46:17.446Z,18.80
2022-12-26T12:51:42.275Z,15.80
2022-12-26T12:57:02.156Z,15.40
2022-12-26T13:02:20.520Z,18.50
2022-12-26T13:07:31.473Z,17.40
2022-12-26T13:12:42.077Z,16.40
2022-12-26T13:17:53.486Z,15.70
2022-12-26T13:23:37.482Z,18.40
2022-12-26T13:28:53.351Z,16.30
2022-12-26T13:33:59.655Z,16.10
2022-12-26T13:39:34.040Z,17.20
2022-12-26T13:44:40.403Z,16.00
2022-12-26T13:49:46.653Z,19.50
2022-12-26T13:55:23.270Z,17.10
2022-12-26T14:00:45.228Z,20.40
2022-12-26T14:06:07.265Z,32.90
2022-12-26T14:11:26.822Z,26.50
2022-12-26T14:16:44.015Z,24.40
2022-12-26T14:21:59.472Z,33.60
2022-12-26T14:27:25.106Z,26.70
2022-12-26T14:32:45.470Z,20.30
2022-12-26T14:38:05.170Z,20.60
2022-12-26T14:43:29.152Z,20.20
2022-12-26T14:48:57.344Z,19.60
2022-12-26T14:54:51.254Z,18.20
2022-12-26T15:00:28.799Z,30.80
2022-12-26T15:05:37.864Z,34.30
2022-12-26T15:11:26.131Z,50.10
2022-12-26T15:16:56.536Z,30.80
2022-12-26T15:22:25.321Z,32.50
2022-12-26T15:28:07.480Z,21.40
2022-12-26T15:33:23.894Z,36.60
2022-12-26T15:38:40.447Z,27.50
2022-12-26T15:43:57.733Z,31.10
2022-12-26T15:49:32.934Z,28.60
2022-12-26T15:55:04.910Z,26.80
2022-12-26T16:00:15.608Z,23.20
2022-12-26T16:05:32.590Z,26.20
2022-12-26T16:10:39.494Z,25.90
2022-12-26T16:15:49.806Z,22.10
2022-12-26T16:21:17.494Z,12.70
2022-12-26T16:26:29.008Z,13.80
2022-12-26T16:31:34.998Z,14.90
2022-12-26T16:36:42.053Z,19.60
2022-12-26T16:42:02.598Z,17.80
2022-12-26T16:47:13.507Z,19.60
2022-12-26T16:52:33.833Z,19.50
2022-12-26T16:57:44.579Z,19.50
2022-12-26T17:02:57.348Z,18.00
2022-12-26T17:08:06.009Z,19.40
2022-12-26T17:13:21.443Z,19.90
2022-12-26T17:18:41.431Z,20.00
2022-12-26T17:24:05.268Z,19.10
2022-12-26T17:29:37.265Z,17.50
2022-12-26T17:34:43.757Z,13.70
2022-12-26T17:40:02.410Z,14.70
2022-12-26T17:45:14.508Z,12.90
2022-12-26T17:50:21.402Z,12.10
2022-12-26T17:55:28.008Z,10.80
2022-12-26T18:00:33.958Z,11.80
2022-12-26T18:05:40.756Z,13.10
2022-12-26T18:10:46.516Z,15.00
2022-12-26T18:15:53.554Z,14.80
2022-12-26T18:20:59.233Z,13.20
2022-12-26T18:26:10.844Z,13.00
2022-12-26T18:31:17.672Z,14.60
2022-12-26T18:36:31.192Z,15.00
2022-12-26T18:41:37.013Z,14.00
2022-12-26T18:46:42.611Z,14.90
2022-12-26T18:51:48.332Z,16.60
2022-12-26T18:56:54.088Z,13.90
2022-12-26T19:02:00.384Z,13.70
2022-12-26T19:07:06.311Z,14.70
2022-12-26T19:12:12.316Z,15.80
2022-12-26T19:17:18.556Z,18.20
2022-12-26T19:22:24.666Z,17.60
2022-12-26T19:27:30.400Z,15.00
2022-12-26T19:32:36.269Z,14.20
2022-12-26T19:37:42.465Z,18.60
2022-12-26T19:42:48.417Z,15.50
2022-12-26T19:47:54.485Z,12.90
2022-12-26T19:53:00.343Z,17.90
2022-12-26T19:58:06.090Z,14.20
2022-12-26T20:03:12.087Z,13.40
2022-12-26T20:08:17.958Z,14.10
2022-12-26T20:13:23.737Z,13.40
2022-12-26T20:18:29.535Z,15.50
2022-12-26T20:23:35.967Z,19.70
2022-12-26T20:28:42.334Z,14.20
2022-12-26T20:33:50.067Z,29.30
2022-12-26T20:38:58.520Z,17.90
2022-12-26T20:44:04.524Z,15.00
2022-12-26T20:49:11.017Z,13.80
2022-12-26T20:54:17.441Z,17.20
2022-12-26T20:59:23.823Z,13.60
2022-12-26T21:04:29.564Z,14.50
2022-12-26T21:09:36.839Z,16.50
2022-12-26T21:14:45.409Z,16.20
2022-12-26T21:19:51.072Z,11.70
2022-12-26T21:24:56.823Z,18.20
2022-12-26T21:30:02.719Z,18.90
2022-12-26T21:35:08.935Z,16.70
2022-12-26T21:40:15.264Z,20.60
2022-12-26T21:45:21.993Z,18.70
2022-12-26T21:50:27.956Z,16.80
2022-12-26T21:55:37.820Z,16.60
2022-12-26T22:00:44.795Z,18.40
2022-12-26T22:05:50.883Z,22.20
2022-12-26T22:11:15.063Z,18.70
2022-12-26T22:16:20.809Z,13.40
2022-12-26T22:21:27.056Z,16.40
2022-12-26T22:26:32.872Z,14.40
2022-12-26T22:31:39.762Z,14.80
2022-12-26T22:36:45.770Z,12.10
2022-12-26T22:41:51.442Z,14.20
2022-12-26T22:46:57.883Z,12.90
2022-12-26T22:52:03.789Z,11.90
2022-12-26T22:57:09.644Z,13.00
2022-12-26T23:02:15.490Z,12.00
2022-12-26T23:07:23.470Z,12.10
2022-12-26T23:12:45.513Z,12.90
2022-12-26T23:18:25.262Z,10.50
2022-12-26T23:23:32.480Z,12.10
2022-12-26T23:28:56.995Z,13.60
2022-12-26T23:34:09.528Z,13.30
2022-12-26T23:39:15.460Z,12.50
2022-12-26T23:44:21.799Z,11.00
2022-12-26T23:49:27.759Z,11.00
2022-12-26T23:54:33.517Z,11.50
2022-12-26T23:59:39.408Z,11.70
